Time;durP1;ratioP1;P1;durP2;ratioP2;P2;SDS_P1;SDS_P2;PMS_P1;PMS_P2;Temp;Humidity;BMP_temperature;BMP_pressure;BME280_temperature;BME280_humidity;BME280_pressure;Samples;Min_cycle;Max_cycle;Signal;HPM_P1;HPM_P2
2024/02/29 00:01:48;;;;;;;22.90;9.80;;;;;;;2.90;100.00;101446.52;107277;1264;71471;-65
2024/02/29 00:04:18;;;;;;;23.40;10.30;;;;;;;2.89;100.00;101445.77;107393;1265;71394;-67
2024/02/29 00:06:45;;;;;;;18.80;9.00;;;;;;;2.87;100.00;101447.41;107322;1267;59455;-66
2024/02/29 00:09:13;;;;;;;23.40;9.20;;;;;;;2.84;100.00;101448.60;107471;1267;59335;-65
2024/02/29 00:11:41;;;;;;;19.90;9.30;;;;;;;2.82;100.00;101450.64;107397;1264;71186;-65
2024/02/29 00:14:09;;;;;;;22.60;9.60;;;;;;;2.79;100.00;101448.50;107360;1264;72063;-65
2024/02/29 00:16:39;;;;;;;22.00;9.70;;;;;;;2.76;100.00;101447.11;107363;1264;71368;-66
2024/02/29 00:19:06;;;;;;;24.10;9.90;;;;;;;2.74;100.00;101448.42;107375;1264;59843;-65
2024/02/29 00:21:34;;;;;;;23.30;9.20;;;;;;;2.72;100.00;101446.33;107387;1264;61635;-65
2024/02/29 00:24:03;;;;;;;26.30;9.30;;;;;;;2.71;100.00;101444.02;107393;1264;71840;-64
2024/02/29 00:26:31;;;;;;;17.80;9.20;;;;;;;2.70;100.00;101444.98;107345;1264;71043;-65
2024/02/29 00:29:01;;;;;;;18.50;9.30;;;;;;;2.70;100.00;101441.37;107477;1267;73202;-65
2024/02/29 00:31:28;;;;;;;23.00;9.30;;;;;;;2.68;100.00;101440.77;107330;1266;59601;-65
2024/02/29 00:33:56;;;;;;;23.90;9.20;;;;;;;2.65;100.00;101437.39;107359;1264;59480;-67
2024/02/29 00:36:24;;;;;;;18.90;8.80;;;;;;;2.62;100.00;101436.74;107494;1264;72000;-67
2024/02/29 00:38:53;;;;;;;23.20;8.70;;;;;;;2.58;100.00;101435.20;107391;1264;71662;-66
2024/02/29 00:41:35;;;;;;;20.60;8.70;;;;;;;2.55;100.00;101436.08;107364;1267;71189;-68
2024/02/29 00:44:04;;;;;;;21.80;8.50;;;;;;;2.52;100.00;101432.03;107251;1267;59531;-66
2024/02/29 00:46:32;;;;;;;19.40;8.70;;;;;;;2.49;100.00;101431.90;107263;1267;59538;-65
2024/02/29 00:49:00;;;;;;;21.80;9.10;;;;;;;2.46;100.00;101429.42;107329;1266;71861;-65
2024/02/29 00:51:27;;;;;;;15.70;8.60;;;;;;;2.42;100.00;101428.08;107380;1269;71941;-65
2024/02/29 00:53:55;;;;;;;23.80;9.20;;;;;;;2.34;100.00;101425.90;107397;1267;71680;-64
2024/02/29 00:56:24;;;;;;;22.60;9.50;;;;;;;2.25;100.00;101436.60;107275;1267;59918;-65
2024/02/29 00:58:52;;;;;;;21.10;8.70;;;;;;;2.20;100.00;101435.50;107378;1267;59379;-66
2024/02/29 01:01:20;;;;;;;21.40;9.70;;;;;;;2.15;100.00;101433.40;107366;1267;73229;-66
2024/02/29 01:03:48;;;;;;;23.70;8.80;;;;;;;2.09;100.00;101433.69;107348;1267;71745;-66
2024/02/29 01:06:16;;;;;;;22.00;8.90;;;;;;;2.06;100.00;101432.30;107257;1267;71904;-67
2024/02/29 01:08:44;;;;;;;19.40;8.80;;;;;;;2.04;100.00;101432.79;107391;1266;60788;-66
2024/02/29 01:11:12;;;;;;;16.60;8.80;;;;;;;2.02;100.00;101433.98;107340;1267;59618;-67
2024/02/29 01:13:39;;;;;;;19.40;8.20;;;;;;;2.01;100.00;101434.82;107313;1269;73080;-67
2024/02/29 01:16:07;;;;;;;18.80;8.00;;;;;;;1.99;100.00;101433.69;107553;1266;71825;-66
2024/02/29 01:18:35;;;;;;;21.00;8.70;;;;;;;1.95;100.00;101434.48;107290;1267;72675;-67
2024/02/29 01:21:06;;;;;;;21.60;8.70;;;;;;;1.92;100.00;101431.67;107318;1266;59683;-66
2024/02/29 01:23:34;;;;;;;19.80;8.30;;;;;;;1.91;100.00;101432.19;107852;1257;60087;-67
2024/02/29 01:26:03;;;;;;;22.80;8.60;;;;;;;1.90;100.00;101428.27;107785;1263;71873;-68
2024/02/29 01:28:31;;;;;;;20.00;9.00;;;;;;;1.89;100.00;101425.95;107691;1263;73755;-66
2024/02/29 01:31:00;;;;;;;28.10;8.60;;;;;;;1.91;100.00;101427.52;107762;1258;72493;-66
2024/02/29 01:33:28;;;;;;;22.40;8.50;;;;;;;1.94;100.00;101425.66;107799;1259;59714;-66
2024/02/29 01:35:56;;;;;;;18.50;7.80;;;;;;;1.98;100.00;101427.48;108036;1257;59559;-65
2024/02/29 01:38:23;;;;;;;16.50;8.00;;;;;;;1.98;100.00;101427.64;107862;1257;73627;-66
2024/02/29 01:40:52;;;;;;;21.40;7.80;;;;;;;2.00;100.00;101421.95;107947;1257;72360;-66
2024/02/29 01:43:19;;;;;;;20.90;8.60;;;;;;;1.99;100.00;101419.05;108089;1254;71216;-66
2024/02/29 01:45:48;;;;;;;18.10;8.20;;;;;;;1.98;100.00;101422.44;108065;1254;59786;-67
2024/02/29 01:48:16;;;;;;;21.70;8.10;;;;;;;1.98;100.00;101425.89;107938;1254;59481;-66
2024/02/29 01:50:44;;;;;;;22.90;7.90;;;;;;;2.00;100.00;101426.16;107980;1254;71993;-66
2024/02/29 01:53:12;;;;;;;20.20;7.80;;;;;;;2.03;100.00;101425.88;107961;1254;71590;-66
2024/02/29 01:55:39;;;;;;;21.30;8.30;;;;;;;2.03;100.00;101426.60;108053;1259;71744;-67
2024/02/29 01:58:07;;;;;;;19.40;9.00;;;;;;;2.02;100.00;101423.16;108150;1254;59583;-67
2024/02/29 02:00:38;;;;;;;22.50;8.20;;;;;;;2.01;100.00;101427.65;108152;1254;59413;-67
2024/02/29 02:03:06;;;;;;;20.20;7.10;;;;;;;2.01;100.00;101428.02;108127;1254;74002;-66
2024/02/29 02:05:34;;;;;;;13.70;7.10;;;;;;;2.00;100.00;101428.27;108147;1254;71347;-67
2024/02/29 02:08:03;;;;;;;20.60;7.80;;;;;;;2.01;100.00;101423.64;108037;1258;71450;-66
2024/02/29 02:10:31;;;;;;;21.40;7.20;;;;;;;2.03;100.00;101420.77;108046;1254;60892;-66
2024/02/29 02:13:00;;;;;;;16.80;8.30;;;;;;;2.03;100.00;101425.71;108114;1254;59391;-66
2024/02/29 02:15:28;;;;;;;15.50;6.50;;;;;;;2.03;100.00;101426.00;108157;1256;71995;-65
2024/02/29 02:17:56;;;;;;;18.00;7.70;;;;;;;2.03;100.00;101423.45;108153;1254;72597;-66
2024/02/29 02:20:24;;;;;;;18.90;7.70;;;;;;;2.00;100.00;101422.52;108147;1254;72878;-65
2024/02/29 02:22:52;;;;;;;17.90;6.90;;;;;;;1.99;100.00;101420.55;108159;1254;59612;-66
2024/02/29 02:25:19;;;;;;;17.10;6.80;;;;;;;1.99;100.00;101421.45;108201;1254;59631;-65
2024/02/29 02:27:47;;;;;;;18.20;7.80;;;;;;;2.00;100.00;101420.77;108172;1254;73048;-66
2024/02/29 02:30:15;;;;;;;14.50;7.10;;;;;;;2.03;100.00;101419.32;108130;1254;72598;-66
2024/02/29 02:32:43;;;;;;;18.90;7.50;;;;;;;2.06;100.00;101419.48;108119;1254;72951;-67
2024/02/29 02:35:11;;;;;;;18.20;7.80;;;;;;;2.09;100.00;101420.05;108114;1254;59671;-66
2024/02/29 02:37:40;;;;;;;16.60;7.50;;;;;;;2.11;100.00;101423.52;108189;1254;59462;-67
2024/02/29 02:40:10;;;;;;;18.10;7.30;;;;;;;2.12;100.00;101424.77;108108;1254;72882;-68
2024/02/29 02:42:38;;;;;;;17.40;7.00;;;;;;;2.14;100.00;101426.69;108051;1254;71737;-67
2024/02/29 02:45:07;;;;;;;19.40;6.80;;;;;;;2.17;100.00;101424.95;108129;1254;71260;-69
2024/02/29 02:47:35;;;;;;;17.00;6.50;;;;;;;2.19;100.00;101421.55;108125;1254;59595;-67
2024/02/29 02:50:03;;;;;;;13.00;6.10;;;;;;;2.20;100.00;101419.25;108119;1257;62877;-67
2024/02/29 02:52:31;;;;;;;15.80;6.60;;;;;;;2.21;100.00;101418.00;108065;1254;72029;-67
2024/02/29 02:54:59;;;;;;;17.40;6.50;;;;;;;2.22;100.00;101421.91;108180;1259;70598;-67
2024/02/29 02:57:27;;;;;;;18.70;7.60;;;;;;;2.22;100.00;101426.78;108105;1254;71377;-66
2024/02/29 02:59:55;;;;;;;15.60;6.10;;;;;;;2.20;100.00;101422.24;108171;1257;59599;-66
2024/02/29 03:02:23;;;;;;;18.80;6.80;;;;;;;2.18;100.00;101420.11;108151;1258;59589;-67
2024/02/29 03:04:50;;;;;;;15.50;6.60;;;;;;;2.17;100.00;101422.71;108020;1256;71835;-66
2024/02/29 03:07:19;;;;;;;14.90;6.50;;;;;;;2.16;100.00;101422.91;108014;1254;71049;-66
2024/02/29 03:09:47;;;;;;;17.70;6.30;;;;;;;2.17;100.00;101416.30;108085;1254;71690;-66
2024/02/29 03:12:15;;;;;;;17.20;6.60;;;;;;;2.18;100.00;101421.16;108024;1254;59869;-66
2024/02/29 03:14:43;;;;;;;17.30;6.70;;;;;;;2.19;100.00;101416.77;108070;1254;59518;-66
2024/02/29 03:17:11;;;;;;;17.00;6.80;;;;;;;2.21;100.00;101417.77;108098;1254;72121;-66
2024/02/29 03:19:39;;;;;;;14.60;6.50;;;;;;;2.24;100.00;101416.39;108146;1254;71432;-66
2024/02/29 03:22:06;;;;;;;15.20;6.60;;;;;;;2.24;100.00;101415.17;108146;1256;73651;-67
2024/02/29 03:24:44;;;;;;;20.80;6.70;;;;;;;2.26;100.00;101413.89;108138;1257;59572;-66
2024/02/29 03:27:12;;;;;;;14.80;6.50;;;;;;;2.27;100.00;101411.23;108042;1254;59579;-67
2024/02/29 03:29:41;;;;;;;14.90;6.90;;;;;;;2.28;100.00;101413.20;108071;1254;71763;-66
2024/02/29 03:32:10;;;;;;;14.80;6.30;;;;;;;2.28;100.00;101415.15;108080;1254;72716;-68
2024/02/29 03:34:38;;;;;;;15.70;6.30;;;;;;;2.27;100.00;101416.01;108115;1255;71674;-68
2024/02/29 03:37:05;;;;;;;15.40;6.30;;;;;;;2.24;100.00;101410.89;108069;1254;61576;-67
2024/02/29 03:39:33;;;;;;;15.20;6.10;;;;;;;2.18;100.00;101413.50;108112;1254;59512;-68
2024/02/29 03:42:01;;;;;;;18.00;6.70;;;;;;;2.13;100.00;101418.21;108201;1254;71744;-67
2024/02/29 03:44:29;;;;;;;17.00;6.20;;;;;;;2.06;100.00;101422.45;108107;1254;71544;-66
2024/02/29 03:46:57;;;;;;;15.30;6.40;;;;;;;2.00;100.00;101421.95;108116;1254;71297;-66
2024/02/29 03:49:25;;;;;;;15.40;7.10;;;;;;;1.95;100.00;101419.80;108139;1254;59626;-66
2024/02/29 03:51:52;;;;;;;15.30;6.60;;;;;;;1.90;100.00;101423.40;108169;1254;59026;-66
2024/02/29 03:54:20;;;;;;;12.30;6.20;;;;;;;1.84;100.00;101424.56;108126;1254;72088;-66
2024/02/29 03:56:48;;;;;;;17.20;6.60;;;;;;;1.82;100.00;101425.18;108149;1254;72890;-67
2024/02/29 03:59:16;;;;;;;14.50;5.90;;;;;;;1.77;100.00;101424.20;108229;1254;71375;-68
2024/02/29 04:01:48;;;;;;;15.20;6.00;;;;;;;1.71;100.00;101418.92;108079;1254;61356;-67
2024/02/29 04:04:18;;;;;;;15.70;5.90;;;;;;;1.67;100.00;101417.79;108174;1254;60023;-66
2024/02/29 04:06:46;;;;;;;15.90;6.20;;;;;;;1.62;100.00;101425.11;108136;1254;72825;-66
2024/02/29 04:09:14;;;;;;;14.90;6.20;;;;;;;1.62;100.00;101430.77;108150;1254;71680;-66
2024/02/29 04:11:42;;;;;;;14.30;5.90;;;;;;;1.61;100.00;101434.16;108074;1254;71429;-66
2024/02/29 04:14:10;;;;;;;16.40;6.20;;;;;;;1.59;100.00;101438.27;108140;1254;60824;-66
2024/02/29 04:16:38;;;;;;;14.50;6.00;;;;;;;1.57;100.00;101442.46;108090;1254;60329;-66
2024/02/29 04:19:06;;;;;;;15.80;6.10;;;;;;;1.55;100.00;101439.85;108080;1254;73826;-67
2024/02/29 04:21:34;;;;;;;14.00;6.00;;;;;;;1.55;100.00;101439.16;108045;1254;71609;-67
2024/02/29 04:24:01;;;;;;;16.60;6.20;;;;;;;1.55;100.00;101439.94;108126;1254;70392;-66
2024/02/29 04:26:29;;;;;;;13.80;6.10;;;;;;;1.56;100.00;101444.04;108082;1254;60997;-67
2024/02/29 04:28:57;;;;;;;14.00;6.00;;;;;;;1.59;100.00;101445.18;108122;1254;60445;-67
2024/02/29 04:31:25;;;;;;;17.20;6.10;;;;;;;1.61;100.00;101444.21;108142;1253;72550;-69
2024/02/29 04:33:52;;;;;;;15.80;6.00;;;;;;;1.62;100.00;101438.80;108054;1254;72708;-66
2024/02/29 04:36:20;;;;;;;13.60;5.90;;;;;;;1.63;100.00;101439.62;108060;1259;72712;-67
2024/02/29 04:38:49;;;;;;;14.20;5.90;;;;;;;1.65;100.00;101447.64;108079;1254;60369;-67
2024/02/29 04:41:17;;;;;;;12.20;5.60;;;;;;;1.67;100.00;101453.09;108072;1254;61043;-67
2024/02/29 04:43:45;;;;;;;14.60;5.50;;;;;;;1.69;100.00;101451.55;108105;1254;73863;-67
2024/02/29 04:46:13;;;;;;;12.40;5.60;;;;;;;1.71;100.00;101452.90;108100;1254;71466;-67
2024/02/29 04:48:41;;;;;;;15.10;5.60;;;;;;;1.72;100.00;101453.23;108077;1254;72447;-68
2024/02/29 04:51:09;;;;;;;13.20;5.80;;;;;;;1.72;100.00;101454.45;108066;1257;60344;-68
2024/02/29 04:53:37;;;;;;;14.30;6.10;;;;;;;1.72;100.00;101457.68;108031;1259;60319;-68
2024/02/29 04:56:06;;;;;;;11.30;5.30;;;;;;;1.72;100.00;101465.43;108116;1254;72562;-66
2024/02/29 04:58:33;;;;;;;15.60;5.30;;;;;;;1.72;100.00;101465.63;108037;1254;72312;-66
2024/02/29 05:01:01;;;;;;;14.00;5.90;;;;;;;1.73;100.00;101472.40;108022;1254;73190;-66
2024/02/29 05:03:29;;;;;;;15.70;5.60;;;;;;;1.71;100.00;101472.77;108099;1254;60415;-67
2024/02/29 05:05:57;;;;;;;13.80;5.90;;;;;;;1.71;100.00;101474.92;108255;1254;60389;-68
2024/02/29 05:08:25;;;;;;;13.70;5.10;;;;;;;1.72;100.00;101474.29;108130;1254;73817;-68
2024/02/29 05:10:53;;;;;;;12.90;4.80;;;;;;;1.73;100.00;101473.33;108115;1254;71180;-66
2024/02/29 05:13:21;;;;;;;13.10;5.40;;;;;;;1.72;100.00;101471.41;108116;1254;72325;-66
2024/02/29 05:15:48;;;;;;;14.50;5.10;;;;;;;1.72;100.00;101472.80;108085;1256;60290;-66
2024/02/29 05:18:16;;;;;;;11.90;5.50;;;;;;;1.69;100.00;101468.40;108039;1256;60768;-66
2024/02/29 05:20:44;;;;;;;11.40;5.60;;;;;;;1.69;100.00;101473.25;107978;1256;72644;-67
2024/02/29 05:23:12;;;;;;;10.70;5.00;;;;;;;1.71;100.00;101471.59;108031;1259;71439;-66
2024/02/29 05:25:40;;;;;;;11.80;5.10;;;;;;;1.73;100.00;101471.71;108111;1254;72691;-68
2024/02/29 05:28:08;;;;;;;11.50;5.80;;;;;;;1.74;100.00;101474.36;108180;1254;60514;-68
2024/02/29 05:30:36;;;;;;;12.80;4.80;;;;;;;1.75;100.00;101475.88;108117;1254;60638;-67
2024/02/29 05:33:04;;;;;;;10.30;4.70;;;;;;;1.76;100.00;101470.92;108060;1254;72607;-67
2024/02/29 05:35:32;;;;;;;13.80;5.80;;;;;;;1.80;100.00;101468.42;108152;1254;71429;-67
2024/02/29 05:38:00;;;;;;;12.40;4.90;;;;;;;1.83;100.00;101472.08;108159;1254;72699;-67
2024/02/29 05:40:28;;;;;;;14.00;5.10;;;;;;;1.87;100.00;101469.36;108108;1254;60284;-67
2024/02/29 05:42:56;;;;;;;8.20;4.90;;;;;;;1.92;100.00;101469.36;108182;1254;60325;-66
2024/02/29 05:45:23;;;;;;;9.50;4.70;;;;;;;1.97;100.00;101468.39;107958;1254;73834;-67
2024/02/29 05:47:51;;;;;;;13.10;4.80;;;;;;;2.01;100.00;101471.02;108134;1254;71445;-66
2024/02/29 05:50:19;;;;;;;12.70;5.20;;;;;;;2.06;100.00;101470.58;108131;1254;71364;-66
2024/02/29 05:52:47;;;;;;;11.10;5.20;;;;;;;2.12;100.00;101471.34;108151;1256;61022;-67
2024/02/29 05:55:16;;;;;;;14.10;4.60;;;;;;;2.20;100.00;101471.48;108158;1254;60046;-67
2024/02/29 05:57:43;;;;;;;9.00;4.50;;;;;;;2.29;100.00;101468.09;108145;1254;73842;-68
2024/02/29 06:00:12;;;;;;;10.00;4.40;;;;;;;2.38;100.00;101465.34;108132;1254;72457;-67
2024/02/29 06:02:40;;;;;;;10.10;4.50;;;;;;;2.48;100.00;101464.55;108123;1254;72718;-66
2024/02/29 06:05:08;;;;;;;10.90;4.60;;;;;;;2.57;100.00;101464.30;108151;1254;60358;-67
2024/02/29 06:07:39;;;;;;;8.80;4.50;;;;;;;2.65;100.00;101464.98;108179;1254;60316;-67
2024/02/29 06:10:10;;;;;;;11.30;4.70;;;;;;;2.72;100.00;101463.34;108148;1254;72647;-66
2024/02/29 06:12:38;;;;;;;13.50;5.10;;;;;;;2.81;100.00;101461.44;108136;1259;71919;-67
2024/02/29 06:15:07;;;;;;;15.60;5.20;;;;;;;2.89;100.00;101462.27;108133;1254;72520;-66
2024/02/29 06:17:38;;;;;;;10.80;4.30;;;;;;;2.96;100.00;101467.88;108083;1254;60742;-67
2024/02/29 06:20:11;;;;;;;13.00;4.50;;;;;;;3.03;100.00;101470.23;108145;1254;60223;-68
2024/02/29 06:22:39;;;;;;;10.60;4.30;;;;;;;3.09;100.00;101471.27;108104;1254;72559;-67
2024/02/29 06:25:11;;;;;;;8.60;4.20;;;;;;;3.15;100.00;101470.77;108175;1254;71240;-66
2024/02/29 06:27:39;;;;;;;10.00;4.60;;;;;;;3.23;100.00;101473.09;108150;1254;71402;-66
2024/02/29 06:30:08;;;;;;;11.20;5.10;;;;;;;3.32;100.00;101471.52;107813;1257;59650;-68
2024/02/29 06:32:36;;;;;;;12.20;5.20;;;;;;;3.41;100.00;101476.14;108152;1259;60191;-66
2024/02/29 06:35:04;;;;;;;9.70;4.10;;;;;;;3.52;99.68;101477.52;108150;1254;72690;-67
2024/02/29 06:37:32;;;;;;;10.00;4.60;;;;;;;3.62;98.86;101480.83;108136;1254;74583;-67
2024/02/29 06:40:00;;;;;;;10.90;5.10;;;;;;;3.72;98.31;101485.20;108129;1253;72665;-68
2024/02/29 06:42:28;;;;;;;9.90;4.70;;;;;;;3.84;97.16;101481.83;108161;1254;60495;-68
2024/02/29 06:44:56;;;;;;;9.80;4.50;;;;;;;3.94;95.86;101480.60;108136;1254;60253;-66
2024/02/29 06:47:24;;;;;;;10.70;4.70;;;;;;;4.04;94.59;101477.27;108121;1254;75930;-67
2024/02/29 06:49:51;;;;;;;9.10;4.70;;;;;;;4.14;93.09;101472.90;108090;1254;72752;-67
2024/02/29 06:52:19;;;;;;;9.10;4.80;;;;;;;4.23;91.48;101477.57;108103;1254;75064;-68
2024/02/29 06:54:48;;;;;;;12.40;4.80;;;;;;;4.29;89.92;101478.89;107951;1254;60339;-69
2024/02/29 06:57:17;;;;;;;11.30;5.20;;;;;;;4.34;88.50;101477.04;108179;1254;60302;-67
2024/02/29 06:59:45;;;;;;;8.90;4.50;;;;;;;4.43;87.35;101478.83;108074;1256;73906;-66
2024/02/29 07:02:16;;;;;;;10.60;5.00;;;;;;;4.55;86.11;101476.41;108140;1254;71426;-67
2024/02/29 07:04:45;;;;;;;10.50;4.60;;;;;;;4.68;84.61;101475.17;108084;1254;73113;-66
2024/02/29 07:07:13;;;;;;;10.20;4.20;;;;;;;4.79;83.15;101475.39;108176;1254;60386;-67
2024/02/29 07:09:41;;;;;;;9.10;4.20;;;;;;;4.89;81.58;101473.81;108177;1254;60291;-68
2024/02/29 07:12:09;;;;;;;12.20;4.60;;;;;;;4.95;79.95;101472.78;108116;1254;74083;-67
2024/02/29 07:14:37;;;;;;;13.20;4.70;;;;;;;5.04;78.94;101472.26;108123;1256;74993;-66
2024/02/29 07:17:05;;;;;;;12.40;4.80;;;;;;;5.08;78.43;101472.23;108057;1254;72807;-67
2024/02/29 07:19:33;;;;;;;10.60;4.60;;;;;;;5.17;77.81;101472.80;108070;1254;61421;-67
2024/02/29 07:22:02;;;;;;;13.70;5.10;;;;;;;5.24;76.83;101473.46;108050;1254;62200;-67
2024/02/29 07:24:31;;;;;;;9.90;4.20;;;;;;;5.31;75.97;101472.02;108131;1254;75913;-67
2024/02/29 07:27:01;;;;;;;9.30;4.50;;;;;;;5.41;75.27;101475.15;108173;1254;71653;-66
2024/02/29 07:29:29;;;;;;;9.90;4.80;;;;;;;5.50;74.76;101473.26;108063;1255;72946;-67
2024/02/29 07:31:57;;;;;;;9.60;4.70;;;;;;;5.58;74.57;101475.79;108065;1254;60435;-66
2024/02/29 07:34:25;;;;;;;9.10;4.70;;;;;;;5.73;73.98;101471.00;108134;1256;60035;-65
2024/02/29 07:36:53;;;;;;;13.20;5.20;;;;;;;5.85;73.32;101470.23;108054;1256;74339;-66
2024/02/29 07:39:21;;;;;;;11.00;4.80;;;;;;;5.98;72.69;101472.11;108029;1254;71432;-66
2024/02/29 07:41:48;;;;;;;11.40;5.10;;;;;;;6.09;72.02;101469.71;108076;1254;73137;-67
2024/02/29 07:44:16;;;;;;;14.00;5.50;;;;;;;6.20;71.13;101462.98;108060;1254;60290;-66
2024/02/29 07:46:44;;;;;;;11.10;5.50;;;;;;;6.29;70.19;101463.21;108076;1254;62289;-66
2024/02/29 07:49:12;;;;;;;12.30;5.40;;;;;;;6.38;69.35;101464.88;108097;1254;73874;-65
2024/02/29 07:51:40;;;;;;;15.30;5.90;;;;;;;6.45;68.52;101464.86;108088;1254;75305;-66
2024/02/29 07:54:09;;;;;;;11.00;5.30;;;;;;;6.53;68.03;101462.42;108029;1254;72718;-65
2024/02/29 07:56:43;;;;;;;10.70;5.50;;;;;;;6.61;67.44;101464.90;108099;1254;61459;-66
2024/02/29 07:59:11;;;;;;;14.80;5.60;;;;;;;6.69;67.05;101464.42;108111;1254;61480;-66
2024/02/29 08:01:39;;;;;;;11.90;5.00;;;;;;;6.78;66.63;101465.17;108111;1257;74221;-66
2024/02/29 08:04:07;;;;;;;12.90;5.20;;;;;;;6.88;66.21;101466.01;108170;1254;72847;-65
2024/02/29 08:06:35;;;;;;;11.70;5.40;;;;;;;6.97;65.94;101469.73;108105;1254;74878;-67
2024/02/29 08:09:08;;;;;;;12.00;6.20;;;;;;;7.07;65.49;101472.23;108131;1257;60303;-67
2024/02/29 08:11:37;;;;;;;14.30;5.40;;;;;;;7.18;65.04;101471.57;108141;1254;62277;-66
2024/02/29 08:14:05;;;;;;;13.50;6.00;;;;;;;7.30;64.74;101471.75;108125;1254;76030;-67
2024/02/29 08:16:33;;;;;;;11.80;5.10;;;;;;;7.40;64.07;101468.91;108102;1259;74735;-66
2024/02/29 08:19:01;;;;;;;11.40;5.60;;;;;;;7.49;63.64;101462.97;108061;1254;73086;-65
2024/02/29 08:21:32;;;;;;;11.40;5.00;;;;;;;7.58;63.03;101462.88;108091;1256;60567;-67
2024/02/29 08:24:02;;;;;;;10.80;4.90;;;;;;;7.63;62.45;101463.00;108069;1259;60449;-66
2024/02/29 08:26:30;;;;;;;11.50;4.80;;;;;;;7.67;61.91;101456.42;108024;1254;76041;-65
2024/02/29 08:28:58;;;;;;;11.40;5.50;;;;;;;7.71;61.67;101456.35;108136;1254;75134;-65
2024/02/29 08:31:41;;;;;;;14.00;5.40;;;;;;;7.76;61.43;101452.85;108123;1254;74891;-65
2024/02/29 08:34:54;;;;;;;13.60;5.30;;;;;;;7.84;61.28;101450.05;107970;1257;60381;-65
2024/02/29 08:37:21;;;;;;;10.90;5.40;;;;;;;7.93;61.29;101449.73;108012;1255;60911;-66
2024/02/29 08:39:50;;;;;;;10.20;4.70;;;;;;;8.02;61.02;101453.05;108181;1254;76021;-66
2024/02/29 08:42:18;;;;;;;10.20;4.80;;;;;;;8.11;60.70;101454.52;108009;1254;71253;-66
2024/02/29 08:44:47;;;;;;;9.90;4.60;;;;;;;8.18;60.30;101454.83;108029;1256;74908;-66
2024/02/29 08:47:15;;;;;;;12.00;5.00;;;;;;;8.25;59.96;101454.98;107992;1254;60985;-66
2024/02/29 08:49:43;;;;;;;11.30;5.20;;;;;;;8.31;59.55;101453.58;108110;1254;62378;-67
2024/02/29 08:52:11;;;;;;;10.10;4.70;;;;;;;8.37;59.45;101450.58;108121;1254;76053;-65
2024/02/29 08:54:39;;;;;;;11.60;4.90;;;;;;;8.44;59.24;101446.42;108171;1254;73233;-65
2024/02/29 08:57:07;;;;;;;12.50;4.90;;;;;;;8.52;59.14;101444.48;108113;1254;74907;-66
2024/02/29 08:59:35;;;;;;;11.70;5.40;;;;;;;8.60;58.82;101444.98;108102;1254;60539;-66
2024/02/29 09:02:05;;;;;;;10.60;5.10;;;;;;;8.69;58.58;101445.13;108138;1254;62378;-66
2024/02/29 09:04:33;;;;;;;10.50;4.80;;;;;;;8.78;58.27;101446.50;107941;1257;75321;-66
2024/02/29 09:07:02;;;;;;;10.60;5.40;;;;;;;8.85;57.99;101449.33;107972;1256;72691;-66
2024/02/29 09:09:30;;;;;;;13.80;6.20;;;;;;;8.93;57.78;101451.61;108010;1257;73039;-66
2024/02/29 09:11:58;;;;;;;11.20;5.40;;;;;;;9.01;57.63;101446.05;108124;1256;60325;-66
2024/02/29 09:14:26;;;;;;;10.30;5.10;;;;;;;9.08;57.23;101444.11;108087;1253;62260;-66
2024/02/29 09:16:54;;;;;;;13.60;5.00;;;;;;;9.15;56.99;101441.77;108189;1254;75975;-65
2024/02/29 09:19:22;;;;;;;10.80;4.70;;;;;;;9.23;56.99;101439.58;108159;1257;73100;-66
2024/02/29 09:21:50;;;;;;;13.40;5.30;;;;;;;9.33;57.22;101442.68;108112;1254;73212;-66
2024/02/29 09:24:18;;;;;;;13.50;5.60;;;;;;;9.44;56.77;101438.42;108218;1257;61907;-66
2024/02/29 09:26:45;;;;;;;11.00;4.90;;;;;;;9.51;56.14;101437.33;108149;1254;60383;-69
2024/02/29 09:29:13;;;;;;;13.50;5.60;;;;;;;9.58;56.07;101438.46;108001;1254;74609;-67
2024/02/29 09:31:42;;;;;;;10.90;5.20;;;;;;;9.64;55.71;101441.71;108138;1258;74418;-68
2024/02/29 09:34:10;;;;;;;10.60;5.50;;;;;;;9.73;55.31;101444.96;108174;1254;73591;-65
2024/02/29 09:36:38;;;;;;;13.50;5.80;;;;;;;9.80;55.26;101446.48;108054;1254;61624;-66
2024/02/29 09:39:06;;;;;;;10.70;5.00;;;;;;;9.89;55.05;101442.64;108183;1254;60330;-65
2024/02/29 09:41:34;;;;;;;12.10;5.60;;;;;;;9.95;54.38;101442.25;108135;1254;73972;-66
2024/02/29 09:44:22;;;;;;;15.00;5.70;;;;;;;10.00;54.46;101445.25;107942;1254;75084;-67
2024/02/29 09:46:50;;;;;;;16.70;5.90;;;;;;;10.09;54.51;101443.75;108016;1254;74898;-67
2024/02/29 09:49:18;;;;;;;11.30;5.60;;;;;;;10.19;54.58;101441.52;108384;1254;60385;-66
2024/02/29 09:51:46;;;;;;;12.10;5.50;;;;;;;10.32;54.33;101441.25;108083;1254;60393;-66
2024/02/29 09:54:17;;;;;;;12.80;5.40;;;;;;;10.43;53.72;101439.41;108056;1254;73209;-65
2024/02/29 09:56:45;;;;;;;15.10;5.90;;;;;;;10.48;53.40;101437.33;108080;1256;74972;-65
2024/02/29 09:59:15;;;;;;;13.00;5.40;;;;;;;10.54;53.49;101432.11;108140;1254;74888;-65
2024/02/29 10:01:44;;;;;;;12.20;5.10;;;;;;;10.65;53.30;101430.84;107979;1254;60514;-66
2024/02/29 10:04:13;;;;;;;11.60;4.90;;;;;;;10.74;52.83;101431.89;108056;1255;60300;-66
2024/02/29 10:06:41;;;;;;;11.80;5.10;;;;;;;10.81;52.49;101425.71;107776;1255;76024;-65
2024/02/29 10:09:09;;;;;;;16.50;5.80;;;;;;;10.85;52.15;101425.20;108094;1254;72970;-66
2024/02/29 10:11:40;;;;;;;11.00;5.30;;;;;;;10.94;51.80;101424.20;108125;1258;73108;-66
2024/02/29 10:14:26;;;;;;;11.10;5.20;;;;;;;11.01;51.80;101422.31;108072;1254;60975;-67
2024/02/29 10:16:54;;;;;;;13.70;5.10;;;;;;;11.10;51.37;101423.61;108100;1254;60757;-66
2024/02/29 10:19:23;;;;;;;11.40;5.80;;;;;;;11.11;51.16;101418.91;108162;1254;76486;-66
2024/02/29 10:21:51;;;;;;;12.20;5.70;;;;;;;11.10;51.17;101418.36;108086;1254;71710;-65
2024/02/29 10:24:21;;;;;;;13.00;4.80;;;;;;;11.13;51.32;101418.99;108128;1259;73078;-66
2024/02/29 10:26:50;;;;;;;10.90;5.50;;;;;;;11.19;51.10;101414.13;108062;1254;61109;-67
2024/02/29 10:29:18;;;;;;;13.30;5.60;;;;;;;11.22;50.90;101415.64;108136;1254;62279;-67
2024/02/29 10:31:45;;;;;;;11.60;5.50;;;;;;;11.28;51.11;101414.99;108045;1258;73579;-65
2024/02/29 10:34:15;;;;;;;9.30;5.20;;;;;;;11.39;50.70;101411.25;108005;1257;72916;-66
2024/02/29 10:36:45;;;;;;;11.20;5.90;;;;;;;11.47;50.25;101414.59;108090;1256;72833;-66
2024/02/29 10:39:13;;;;;;;13.60;5.50;;;;;;;11.52;50.15;101413.27;108099;1254;61193;-65
2024/02/29 10:41:49;;;;;;;11.60;5.10;;;;;;;11.57;50.28;101410.91;108056;1254;62236;-67
2024/02/29 10:44:24;;;;;;;11.40;5.70;;;;;;;11.61;50.22;101409.02;108088;1254;76067;-66
2024/02/29 10:46:52;;;;;;;12.10;5.40;;;;;;;11.65;50.33;101406.70;108119;1254;74789;-69
2024/02/29 10:49:29;;;;;;;11.20;5.70;;;;;;;11.69;50.02;101405.73;107860;1254;72478;-67
2024/02/29 10:52:09;;;;;;;13.90;5.50;;;;;;;11.71;49.94;101403.80;108071;1254;62271;-66
2024/02/29 10:54:41;;;;;;;12.20;5.20;;;;;;;11.73;49.65;101395.31;108003;1254;62675;-65
2024/02/29 10:57:14;;;;;;;11.50;5.30;;;;;;;11.74;49.64;101391.95;108166;1254;76253;-65
2024/02/29 10:59:49;;;;;;;12.20;4.80;;;;;;;11.77;49.56;101387.03;108008;1254;74883;-65
2024/02/29 11:02:17;;;;;;;12.20;5.20;;;;;;;11.80;49.10;101383.00;108050;1259;72812;-67
2024/02/29 11:04:44;;;;;;;12.00;5.10;;;;;;;11.85;49.32;101384.54;108001;1256;62309;-68
2024/02/29 11:07:12;;;;;;;9.70;4.80;;;;;;;11.91;49.30;101379.09;108073;1254;62240;-68
2024/02/29 11:09:40;;;;;;;12.10;5.40;;;;;;;12.00;49.24;101375.60;108030;1254;76196;-65
2024/02/29 11:12:13;;;;;;;14.90;4.80;;;;;;;12.05;48.98;101374.52;107863;1257;74788;-65
2024/02/29 11:14:45;;;;;;;12.30;5.30;;;;;;;12.08;48.96;101367.16;108024;1256;73962;-66
2024/02/29 11:17:14;;;;;;;9.70;4.80;;;;;;;12.11;49.05;101368.16;108060;1254;60412;-67
2024/02/29 11:19:45;;;;;;;12.30;5.50;;;;;;;12.15;49.17;101365.21;108131;1255;62251;-67